Beit Lahm, Israel
Current Conditions -  °F | °C
As of 8:50 AM on Sunday 23 Nov 2014 (Local Time) from LLBG Reporting Station
Scattered Clouds Scattered Clouds  
Wind Chill: 61°   Ceiling: Unl
Heat Index: 61°   Visibility: 6mi
Dew Point: 52°   Wind: 7mph
Humidity: 72%   Direction: 160°SSE
Pressure: 30"   Gusts: NA
Location:  31.72°N, 35.2°E
Report Text: LLBG 230550Z 16006KT 9999 SCT040 16/11 Q1016 NOSIG RMK BKN090
Loading
Personal Weather Stations






























Interactive Weather Map New forecast layout! Learn more

10-Day Weather Forecast

Advertisements
Track Severe Weather on mobile